Nashville, Tennessee
Traffic Map
Current Weather Conditions
Nashville, Tennessee
Overcast
Overcast
57°
Feels Like: 57°
Wind Chill: 57° Ceiling: 25000
Heat Index: 57° Visibility: 10mi
Dew Point: 40° Wind: 3mph
Humidity: 53% Direction: 170° (S)
Pressure: 30.27in Gusts: 0mph
Raw Report DataKBNA 180253Z 17003KT 10SM OVC250 14/04 A3027 RMK AO2 SLP249 T01390044 53006
Traffic Incident Summary
Active as of:
Severity:
Category:
InformationThere was an issue retrieving the traffic information for this location. Please try a different location or try again shortly.
Advertisements
At Last! Intellicast now available for iPhone and Android